Time,TemperatureF,DewpointF,PressureIn,WindDirection,WindDirectionDegrees,WindSpeedMPH,WindSpeedGustMPH,Humidity,HourlyPrecipIn,Conditions,Clouds,dailyrainin,SoftwareType,DateUTC
2013-03-30 00:00:00,34.3,9.4,32.22,North,357,0.0,0.0,35,0.00,NA,NA,-99.99,wxupload 3.4,2013-03-30 04:00:00,
2013-03-30 00:02:00,34.2,9.2,32.22,North,357,0.0,0.0,35,0.00,NA,NA,-99.99,wxupload 3.4,2013-03-30 04:02:00,
2013-03-30 00:04:00,34.0,9.7,32.22,North,357,0.0,0.0,36,0.00,NA,NA,-99.99,wxupload 3.4,2013-03-30 04:04:00,
2013-03-30 00:06:00,34.0,9.7,32.22,North,357,0.0,0.0,36,0.00,NA,NA,-99.99,wxupload 3.4,2013-03-30 04:06:00,
2013-03-30 00:12:00,34.0,10.9,32.22,North,357,0.0,0.0,38,0.00,NA,NA,-99.99,wxupload 3.4,2013-03-30 04:12:00,
2013-03-30 00:18:00,34.0,10.9,32.19,North,357,0.0,0.0,38,0.00,NA,NA,-99.99,wxupload 3.4,2013-03-30 04:18:00,
2013-03-30 00:24:00,34.0,10.9,32.19,North,357,0.0,0.0,38,0.00,NA,NA,-99.99,wxupload 3.4,2013-03-30 04:24:00,
2013-03-30 00:30:00,33.8,11.4,32.19,North,357,0.0,0.0,39,0.00,NA,NA,-99.99,wxupload 3.4,2013-03-30 04:30:00,
2013-03-30 00:36:00,33.6,11.2,32.19,North,357,0.0,0.0,39,0.00,NA,NA,-99.99,wxupload 3.4,2013-03-30 04:36:00,
2013-03-30 00:42:00,33.4,11.6,32.19,North,357,0.0,0.0,40,0.00,NA,NA,-99.99,wxupload 3.4,2013-03-30 04:42:00,
2013-03-30 00:48:00,33.4,11.6,32.19,North,357,0.0,0.0,40,0.00,NA,NA,-99.99,wxupload 3.4,2013-03-30 04:48:00,
2013-03-30 00:54:00,33.3,11.4,32.19,North,357,0.0,0.0,40,0.00,NA,NA,-99.99,wxupload 3.4,2013-03-30 04:54:00,
2013-03-30 01:00:00,33.1,11.3,32.19,North,357,0.0,0.0,40,0.00,NA,NA,-99.99,wxupload 3.4,2013-03-30 05:00:00,
2013-03-30 01:06:00,32.9,11.1,32.19,North,357,0.0,0.0,40,0.00,NA,NA,-99.99,wxupload 3.4,2013-03-30 05:06:00,
2013-03-30 01:12:00,32.7,11.5,32.19,North,357,0.0,0.0,41,0.00,NA,NA,-99.99,wxupload 3.4,2013-03-30 05:12:00,
2013-03-30 01:18:00,32.7,11.5,32.19,North,357,0.0,0.0,41,0.00,NA,NA,-99.99,wxupload 3.4,2013-03-30 05:18:00,
2013-03-30 01:24:00,32.4,11.2,32.19,North,357,0.0,0.0,41,0.00,NA,NA,-99.99,wxupload 3.4,2013-03-30 05:24:00,
2013-03-30 01:30:00,32.0,10.8,32.19,North,357,0.0,0.0,41,0.00,NA,NA,-99.99,wxupload 3.4,2013-03-30 05:30:00,
2013-03-30 01:36:00,31.8,10.7,32.19,North,357,0.0,0.0,41,0.00,NA,NA,-99.99,wxupload 3.4,2013-03-30 05:36:00,
2013-03-30 01:42:00,31.6,10.5,32.19,North,357,0.0,0.0,41,0.00,NA,NA,-99.99,wxupload 3.4,2013-03-30 05:42:00,
2013-03-30 01:48:00,31.5,10.4,32.19,North,357,0.0,0.0,41,0.00,NA,NA,-99.99,wxupload 3.4,2013-03-30 05:48:00,
2013-03-30 01:54:00,31.3,10.7,32.19,North,357,0.0,0.0,42,0.00,NA,NA,-99.99,wxupload 3.4,2013-03-30 05:54:00,
2013-03-30 02:00:00,31.3,11.3,32.19,North,8,0.0,0.0,43,0.00,NA,NA,-99.99,wxupload 3.4,2013-03-30 06:00:00,
2013-03-30 02:06:00,31.3,11.3,32.19,SSW,207,0.0,0.0,43,0.00,NA,NA,-99.99,wxupload 3.4,2013-03-30 06:06:00,
2013-03-30 02:12:00,31.1,11.1,32.19,West,267,0.0,0.0,43,0.00,NA,NA,-99.99,wxupload 3.4,2013-03-30 06:12:00,
2013-03-30 02:18:00,31.1,11.1,32.19,West,264,0.0,0.0,43,0.00,NA,NA,-99.99,wxupload 3.4,2013-03-30 06:18:00,
2013-03-30 02:24:00,31.1,11.1,32.19,West,264,0.0,0.0,43,0.00,NA,NA,-99.99,wxupload 3.4,2013-03-30 06:24:00,
2013-03-30 02:30:00,31.6,12.1,32.19,SSE,159,0.0,0.0,44,0.00,NA,NA,-99.99,wxupload 3.4,2013-03-30 06:30:00,
2013-03-30 02:36:00,31.6,12.1,32.19,SSE,158,0.0,0.0,44,0.00,NA,NA,-99.99,wxupload 3.4,2013-03-30 06:36:00,
2013-03-30 02:42:00,31.6,12.1,32.19,SSE,158,0.0,0.0,44,0.00,NA,NA,-99.99,wxupload 3.4,2013-03-30 06:42:00,
2013-03-30 02:48:00,31.5,12.0,32.19,SE,128,0.0,0.0,44,0.00,NA,NA,-99.99,wxupload 3.4,2013-03-30 06:48:00,
2013-03-30 02:54:00,31.1,12.1,32.19,SE,128,0.0,0.0,45,0.00,NA,NA,-99.99,wxupload 3.4,2013-03-30 06:54:00,
2013-03-30 03:00:00,30.6,11.6,32.19,SE,128,0.0,0.0,45,0.00,NA,NA,-99.99,wxupload 3.4,2013-03-30 07:00:00,
2013-03-30 03:06:00,30.4,11.0,32.19,SE,128,0.0,0.0,44,0.00,NA,NA,-99.99,wxupload 3.4,2013-03-30 07:06:00,
2013-03-30 03:12:00,30.0,11.1,32.19,SE,128,0.0,0.0,45,0.00,NA,NA,-99.99,wxupload 3.4,2013-03-30 07:12:00,
2013-03-30 03:18:00,29.7,10.8,32.19,SE,128,0.0,0.0,45,0.00,NA,NA,-99.99,wxupload 3.4,2013-03-30 07:18:00,
2013-03-30 03:24:00,29.5,10.6,32.19,SE,128,0.0,0.0,45,0.00,NA,NA,-99.99,wxupload 3.4,2013-03-30 07:24:00,
2013-03-30 03:30:00,29.3,10.5,32.19,SE,129,0.0,0.0,45,0.00,NA,NA,-99.99,wxupload 3.4,2013-03-30 07:30:00,
2013-03-30 03:36:00,29.1,10.3,32.19,SE,128,0.0,0.0,45,0.00,NA,NA,-99.99,wxupload 3.4,2013-03-30 07:36:00,
2013-03-30 03:42:00,28.9,10.1,32.19,SE,128,0.0,0.0,45,0.00,NA,NA,-99.99,wxupload 3.4,2013-03-30 07:42:00,
2013-03-30 03:48:00,28.9,10.1,32.19,SE,128,0.0,0.0,45,0.00,NA,NA,-99.99,wxupload 3.4,2013-03-30 07:48:00,
2013-03-30 03:54:00,28.6,9.8,32.19,SE,128,0.0,0.0,45,0.00,NA,NA,-99.99,wxupload 3.4,2013-03-30 07:54:00,
2013-03-30 04:00:00,28.4,10.1,32.19,SE,128,0.0,0.0,46,0.00,NA,NA,-99.99,wxupload 3.4,2013-03-30 08:00:00,
2013-03-30 04:08:00,27.9,9.6,32.16,SE,128,0.0,0.0,46,0.00,NA,NA,-99.99,wxupload 3.4,2013-03-30 08:08:00,
2013-03-30 04:14:00,27.9,9.6,32.16,SE,128,0.0,0.0,46,0.00,NA,NA,-99.99,wxupload 3.4,2013-03-30 08:14:00,
2013-03-30 04:20:00,27.7,9.5,32.19,SE,128,0.0,0.0,46,0.00,NA,NA,-99.99,wxupload 3.4,2013-03-30 08:20:00,
2013-03-30 04:26:00,27.7,9.5,32.19,SE,128,0.0,0.0,46,0.00,NA,NA,-99.99,wxupload 3.4,2013-03-30 08:26:00,
2013-03-30 04:32:00,27.5,9.3,32.16,SE,129,0.0,0.0,46,0.00,NA,NA,-99.99,wxupload 3.4,2013-03-30 08:32:00,
2013-03-30 04:38:00,27.3,9.1,32.16,SE,128,0.0,0.0,46,0.00,NA,NA,-99.99,wxupload 3.4,2013-03-30 08:38:00,
2013-03-30 04:44:00,27.1,9.0,32.16,SE,129,0.0,0.0,46,0.00,NA,NA,-99.99,wxupload 3.4,2013-03-30 08:44:00,
2013-03-30 04:50:00,27.0,9.3,32.16,SE,129,0.0,0.0,47,0.00,NA,NA,-99.99,wxupload 3.4,2013-03-30 08:50:00,
2013-03-30 04:56:00,27.1,9.5,32.16,SE,129,0.0,0.0,47,0.00,NA,NA,-99.99,wxupload 3.4,2013-03-30 08:56:00,
2013-03-30 05:02:00,27.1,9.9,32.19,SE,128,0.0,0.0,48,0.00,NA,NA,-99.99,wxupload 3.4,2013-03-30 09:02:00,
2013-03-30 05:08:00,27.0,9.8,32.19,SE,128,0.0,0.0,48,0.00,NA,NA,-99.99,wxupload 3.4,2013-03-30 09:08:00,
2013-03-30 05:14:00,27.0,9.8,32.19,SE,128,0.0,0.0,48,0.00,NA,NA,-99.99,wxupload 3.4,2013-03-30 09:14:00,
2013-03-30 05:20:00,27.1,10.4,32.16,SE,128,0.0,0.0,49,0.00,NA,NA,-99.99,wxupload 3.4,2013-03-30 09:20:00,
2013-03-30 05:26:00,27.1,10.4,32.16,SE,128,0.0,0.0,49,0.00,NA,NA,-99.99,wxupload 3.4,2013-03-30 09:26:00,
2013-03-30 05:32:00,27.0,10.2,32.16,SE,128,0.0,0.0,49,0.00,NA,NA,-99.99,wxupload 3.4,2013-03-30 09:32:00,
2013-03-30 05:36:00,27.0,10.2,32.16,SE,128,0.0,0.0,49,0.00,NA,NA,-99.99,wxupload 3.4,2013-03-30 09:36:00,
2013-03-30 05:42:00,27.0,10.2,32.16,SE,128,0.0,0.0,49,0.00,NA,NA,-99.99,wxupload 3.4,2013-03-30 09:42:00,
2013-03-30 05:48:00,27.0,10.2,32.16,SE,128,0.0,0.0,49,0.00,NA,NA,-99.99,wxupload 3.4,2013-03-30 09:48:00,
2013-03-30 05:54:00,26.8,10.1,32.16,SE,128,0.0,0.0,49,0.00,NA,NA,-99.99,wxupload 3.4,2013-03-30 09:54:00,
2013-03-30 06:00:00,26.4,9.7,32.16,SE,128,0.0,0.0,49,0.00,NA,NA,-99.99,wxupload 3.4,2013-03-30 10:00:00,
2013-03-30 06:06:00,26.2,9.6,32.19,SE,128,0.0,0.0,49,0.00,NA,NA,-99.99,wxupload 3.4,2013-03-30 10:06:00,
2013-03-30 06:12:00,26.1,9.8,32.19,SE,128,0.0,0.0,50,0.00,NA,NA,-99.99,wxupload 3.4,2013-03-30 10:12:00,
2013-03-30 06:18:00,26.1,9.8,32.19,SE,128,0.0,0.0,50,0.00,NA,NA,-99.99,wxupload 3.4,2013-03-30 10:18:00,
2013-03-30 06:24:00,25.9,9.7,32.19,SE,128,0.0,0.0,50,0.00,NA,NA,-99.99,wxupload 3.4,2013-03-30 10:24:00,
2013-03-30 06:30:00,25.7,9.5,32.19,SE,128,0.0,0.0,50,0.00,NA,NA,-99.99,wxupload 3.4,2013-03-30 10:30:00,
2013-03-30 06:36:00,25.7,9.5,32.19,SE,128,0.0,0.0,50,0.00,NA,NA,-99.99,wxupload 3.4,2013-03-30 10:36:00,
2013-03-30 06:42:00,25.5,9.3,32.19,SE,128,0.0,0.0,50,0.00,NA,NA,-99.99,wxupload 3.4,2013-03-30 10:42:00,
2013-03-30 06:48:00,25.5,9.3,32.19,SE,128,0.0,0.0,50,0.00,NA,NA,-99.99,wxupload 3.4,2013-03-30 10:48:00,
2013-03-30 06:54:00,25.3,9.2,32.19,SE,128,0.0,0.0,50,0.00,NA,NA,-99.99,wxupload 3.4,2013-03-30 10:54:00,
2013-03-30 07:00:00,25.3,9.6,32.19,SE,128,0.0,0.0,51,0.00,NA,NA,-99.99,wxupload 3.4,2013-03-30 11:00:00,
2013-03-30 07:06:00,25.3,9.6,32.19,SE,128,0.0,0.0,51,0.00,NA,NA,-99.99,wxupload 3.4,2013-03-30 11:06:00,
2013-03-30 07:12:00,25.3,9.6,32.19,SE,128,0.0,0.0,51,0.00,NA,NA,-99.99,wxupload 3.4,2013-03-30 11:12:00,
2013-03-30 07:18:00,25.3,9.6,32.16,SE,128,0.0,0.0,51,0.00,NA,NA,-99.99,wxupload 3.4,2013-03-30 11:18:00,
2013-03-30 07:24:00,25.3,9.6,32.16,SE,128,0.0,0.0,51,0.00,NA,NA,-99.99,wxupload 3.4,2013-03-30 11:24:00,
2013-03-30 07:30:00,25.3,9.6,32.16,SE,128,0.0,0.0,51,0.00,NA,NA,-99.99,wxupload 3.4,2013-03-30 11:30:00,
2013-03-30 07:36:00,25.5,9.8,32.19,SE,128,0.0,0.0,51,0.00,NA,NA,-99.99,wxupload 3.4,2013-03-30 11:36:00,
2013-03-30 07:42:00,25.9,10.1,32.19,SE,128,0.0,0.0,51,0.00,NA,NA,-99.99,wxupload 3.4,2013-03-30 11:42:00,
2013-03-30 07:48:00,26.1,10.7,32.19,SE,128,0.0,0.0,52,0.00,NA,NA,-99.99,wxupload 3.4,2013-03-30 11:48:00,
2013-03-30 07:54:00,26.6,11.2,32.19,SE,128,0.0,0.0,52,0.00,NA,NA,-99.99,wxupload 3.4,2013-03-30 11:54:00,
2013-03-30 08:00:00,27.0,11.6,32.19,SE,128,0.0,0.0,52,0.00,NA,NA,-99.99,wxupload 3.4,2013-03-30 12:00:00,
2013-03-30 08:06:00,27.3,11.9,32.19,SE,128,0.0,0.0,52,0.00,NA,NA,-99.99,wxupload 3.4,2013-03-30 12:06:00,
2013-03-30 08:12:00,27.9,12.4,32.19,SE,128,0.0,0.0,52,0.00,NA,NA,-99.99,wxupload 3.4,2013-03-30 12:12:00,
2013-03-30 08:18:00,28.4,13.4,32.19,East,98,0.0,0.0,53,0.00,NA,NA,-99.99,wxupload 3.4,2013-03-30 12:18:00,
2013-03-30 08:24:00,28.8,13.7,32.19,East,98,0.0,0.0,53,0.00,NA,NA,-99.99,wxupload 3.4,2013-03-30 12:24:00,
2013-03-30 08:30:00,29.1,14.0,32.19,East,98,0.0,0.0,53,0.00,NA,NA,-99.99,wxupload 3.4,2013-03-30 12:30:00,
2013-03-30 08:36:00,29.8,14.7,32.22,East,97,0.0,0.0,53,0.00,NA,NA,-99.99,wxupload 3.4,2013-03-30 12:36:00,
2013-03-30 08:42:00,30.4,15.2,32.22,East,97,0.0,0.0,53,0.00,NA,NA,-99.99,wxupload 3.4,2013-03-30 12:42:00,
2013-03-30 08:48:00,31.5,16.7,32.22,East,97,0.0,0.0,54,0.00,NA,NA,-99.99,wxupload 3.4,2013-03-30 12:48:00,
2013-03-30 08:54:00,32.2,17.4,32.22,East,97,0.0,0.0,54,0.00,NA,NA,-99.99,wxupload 3.4,2013-03-30 12:54:00,
2013-03-30 09:00:00,32.5,17.7,32.22,East,97,0.0,0.0,54,0.00,NA,NA,-99.99,wxupload 3.4,2013-03-30 13:00:00,
2013-03-30 09:06:00,33.4,18.5,32.22,NNW,329,0.0,0.0,54,0.00,NA,NA,-99.99,wxupload 3.4,2013-03-30 13:06:00,
2013-03-30 09:12:00,36.1,17.8,32.22,NNW,334,0.0,4.0,47,0.00,NA,NA,-99.99,wxupload 3.4,2013-03-30 13:12:00,
2013-03-30 09:18:00,38.3,17.7,32.22,WNW,299,0.0,3.0,43,0.00,NA,NA,-99.99,wxupload 3.4,2013-03-30 13:18:00,
2013-03-30 09:24:00,40.3,17.3,32.22,NW,311,0.0,0.0,39,0.00,NA,NA,-99.99,wxupload 3.4,2013-03-30 13:24:00,
2013-03-30 09:30:00,41.4,16.4,32.22,North,9,0.0,0.0,36,0.00,NA,NA,-99.99,wxupload 3.4,2013-03-30 13:30:00,
2013-03-30 09:36:00,42.3,15.9,32.22,WNW,301,0.0,0.0,34,0.00,NA,NA,-99.99,wxupload 3.4,2013-03-30 13:36:00,
2013-03-30 09:42:00,43.0,15.1,32.22,NW,313,0.0,0.0,32,0.00,NA,NA,-99.99,wxupload 3.4,2013-03-30 13:42:00,
2013-03-30 09:48:00,43.3,14.7,32.22,NE,56,0.0,0.0,31,0.00,NA,NA,-99.99,wxupload 3.4,2013-03-30 13:48:00,
2013-03-30 09:54:00,43.7,14.2,32.22,North,0,0.0,0.0,30,0.00,NA,NA,-99.99,wxupload 3.4,2013-03-30 13:54:00,
2013-03-30 10:00:00,44.1,14.6,32.22,NNE,21,0.0,0.0,30,0.00,NA,NA,-99.99,wxupload 3.4,2013-03-30 14:00:00,
2013-03-30 10:06:00,44.2,14.7,32.22,WNW,287,0.0,0.0,30,0.00,NA,NA,-99.99,wxupload 3.4,2013-03-30 14:06:00,
2013-03-30 10:12:00,45.0,13.8,32.22,NW,312,0.0,0.0,28,0.00,NA,NA,-99.99,wxupload 3.4,2013-03-30 14:12:00,
2013-03-30 10:18:00,45.3,14.9,32.22,WNW,294,0.0,0.0,29,0.00,NA,NA,-99.99,wxupload 3.4,2013-03-30 14:18:00,
2013-03-30 10:24:00,46.6,14.4,32.22,NNE,32,0.0,0.0,27,0.00,NA,NA,-99.99,wxupload 3.4,2013-03-30 14:24:00,
2013-03-30 10:30:00,46.4,14.2,32.22,NE,39,0.0,0.0,27,0.00,NA,NA,-99.99,wxupload 3.4,2013-03-30 14:30:00,
2013-03-30 10:36:00,46.9,14.7,32.19,SE,142,0.0,0.0,27,0.00,NA,NA,-99.99,wxupload 3.4,2013-03-30 14:36:00,
2013-03-30 10:42:00,47.3,15.0,32.19,NNE,16,0.0,0.0,27,0.00,NA,NA,-99.99,wxupload 3.4,2013-03-30 14:42:00,
2013-03-30 10:48:00,47.7,15.3,32.19,NE,41,0.0,0.0,27,0.00,NA,NA,-99.99,wxupload 3.4,2013-03-30 14:48:00,
2013-03-30 10:54:00,47.8,15.5,32.19,NNW,339,0.0,0.0,27,0.00,NA,NA,-99.99,wxupload 3.4,2013-03-30 14:54:00,
2013-03-30 11:00:00,48.6,15.2,32.19,NE,42,0.0,0.0,26,0.00,NA,NA,-99.99,wxupload 3.4,2013-03-30 15:00:00,
2013-03-30 11:06:00,48.9,15.5,32.19,NE,40,0.0,4.0,26,0.00,NA,NA,-99.99,wxupload 3.4,2013-03-30 15:06:00,
2013-03-30 11:12:00,49.5,14.2,32.19,North,9,0.0,0.0,24,0.00,NA,NA,-99.99,wxupload 3.4,2013-03-30 15:12:00,
2013-03-30 11:20:00,50.0,14.6,32.19,NNE,21,0.0,5.0,24,0.00,NA,NA,-99.99,wxupload 3.4,2013-03-30 15:20:00,
2013-03-30 11:26:00,50.0,14.6,32.19,NW,307,0.0,4.0,24,0.00,NA,NA,-99.99,wxupload 3.4,2013-03-30 15:26:00,
2013-03-30 11:32:00,50.9,15.4,32.19,NW,320,0.0,0.0,24,0.00,NA,NA,-99.99,wxupload 3.4,2013-03-30 15:32:00,
2013-03-30 11:38:00,51.6,16.0,32.19,NW,316,0.0,0.0,24,0.00,NA,NA,-99.99,wxupload 3.4,2013-03-30 15:38:00,
2013-03-30 11:44:00,52.0,15.3,32.19,NNE,17,0.0,5.0,23,0.00,NA,NA,-99.99,wxupload 3.4,2013-03-30 15:44:00,
2013-03-30 11:50:00,52.2,13.4,32.19,NNE,31,2.0,3.0,21,0.00,NA,NA,-99.99,wxupload 3.4,2013-03-30 15:50:00,
2013-03-30 11:56:00,52.7,16.0,32.19,WSW,257,0.0,0.0,23,0.00,NA,NA,-99.99,wxupload 3.4,2013-03-30 15:56:00,
2013-03-30 12:02:00,54.3,14.1,32.16,North,357,0.0,4.0,20,0.00,NA,NA,-99.99,wxupload 3.4,2013-03-30 16:02:00,
2013-03-30 12:08:00,54.1,14.0,32.16,NE,36,0.0,0.0,20,0.00,NA,NA,-99.99,wxupload 3.4,2013-03-30 16:08:00,
2013-03-30 12:14:00,54.5,14.3,32.16,NW,304,0.0,0.0,20,0.00,NA,NA,-99.99,wxupload 3.4,2013-03-30 16:14:00,
2013-03-30 12:20:00,54.5,14.3,32.16,NNE,17,2.0,8.0,20,0.00,NA,NA,-99.99,wxupload 3.4,2013-03-30 16:20:00,
2013-03-30 12:26:00,55.0,14.7,32.16,NNE,31,0.0,2.0,20,0.00,NA,NA,-99.99,wxupload 3.4,2013-03-30 16:26:00,
2013-03-30 12:32:00,55.2,14.9,32.16,NNE,22,0.0,5.0,20,0.00,NA,NA,-99.99,wxupload 3.4,2013-03-30 16:32:00,
2013-03-30 12:38:00,55.6,15.2,32.16,West,281,0.0,0.0,20,0.00,NA,NA,-99.99,wxupload 3.4,2013-03-30 16:38:00,
2013-03-30 12:44:00,55.9,15.5,32.16,WNW,303,0.0,0.0,20,0.00,NA,NA,-99.99,wxupload 3.4,2013-03-30 16:44:00,
2013-03-30 12:50:00,56.8,16.3,32.16,NNE,24,0.0,0.0,20,0.00,NA,NA,-99.99,wxupload 3.4,2013-03-30 16:50:00,
2013-03-30 12:56:00,56.5,16.0,32.16,NNW,346,0.0,0.0,20,0.00,NA,NA,-99.99,wxupload 3.4,2013-03-30 16:56:00,
2013-03-30 13:02:00,56.8,16.3,32.16,NE,35,3.0,4.0,20,0.00,NA,NA,-99.99,wxupload 3.4,2013-03-30 17:02:00,
2013-03-30 13:08:00,57.2,15.4,32.16,SE,129,0.0,0.0,19,0.00,NA,NA,-99.99,wxupload 3.4,2013-03-30 17:08:00,
2013-03-30 13:14:00,57.4,15.5,32.16,ESE,103,0.0,3.0,19,0.00,NA,NA,-99.99,wxupload 3.4,2013-03-30 17:14:00,
2013-03-30 13:20:00,57.2,15.4,32.16,NW,312,0.0,3.0,19,0.00,NA,NA,-99.99,wxupload 3.4,2013-03-30 17:20:00,
2013-03-30 13:26:00,58.1,16.1,32.16,NNW,329,2.0,4.0,19,0.00,NA,NA,-99.99,wxupload 3.4,2013-03-30 17:26:00,
2013-03-30 13:34:00,58.6,14.0,32.13,North,0,3.0,3.0,17,0.00,NA,NA,-99.99,wxupload 3.4,2013-03-30 17:34:00,
2013-03-30 13:40:00,59.2,17.0,32.13,WSW,247,0.0,0.0,19,0.00,NA,NA,-99.99,wxupload 3.4,2013-03-30 17:40:00,
2013-03-30 13:46:00,59.7,14.9,32.13,NNW,329,0.0,0.0,17,0.00,NA,NA,-99.99,wxupload 3.4,2013-03-30 17:46:00,
2013-03-30 13:52:00,60.1,15.2,32.13,NNE,16,0.0,5.0,17,0.00,NA,NA,-99.99,wxupload 3.4,2013-03-30 17:52:00,
2013-03-30 13:58:00,60.1,15.2,32.13,NE,50,0.0,4.0,17,0.00,NA,NA,-99.99,wxupload 3.4,2013-03-30 17:58:00,
2013-03-30 14:04:00,59.7,14.9,32.13,NE,44,0.0,0.0,17,0.00,NA,NA,-99.99,wxupload 3.4,2013-03-30 18:04:00,
2013-03-30 14:10:00,59.2,14.5,32.13,North,349,0.0,4.0,17,0.00,NA,NA,-99.99,wxupload 3.4,2013-03-30 18:10:00,
2013-03-30 14:16:00,59.5,14.8,32.13,WNW,294,0.0,3.0,17,0.00,NA,NA,-99.99,wxupload 3.4,2013-03-30 18:16:00,
2013-03-30 14:22:00,60.8,14.4,32.13,ESE,120,0.0,3.0,16,0.00,NA,NA,-99.99,wxupload 3.4,2013-03-30 18:22:00,
2013-03-30 14:28:00,61.3,14.9,32.13,NNW,327,0.0,3.0,16,0.00,NA,NA,-99.99,wxupload 3.4,2013-03-30 18:28:00,
2013-03-30 14:34:00,61.9,15.3,32.13,North,5,0.0,0.0,16,0.00,NA,NA,-99.99,wxupload 3.4,2013-03-30 18:34:00,
2013-03-30 14:40:00,61.2,14.7,32.13,NW,311,0.0,0.0,16,0.00,NA,NA,-99.99,wxupload 3.4,2013-03-30 18:40:00,
2013-03-30 14:46:00,61.0,14.6,32.13,NNW,341,0.0,3.0,16,0.00,NA,NA,-99.99,wxupload 3.4,2013-03-30 18:46:00,
2013-03-30 14:52:00,61.0,14.6,32.13,ESE,114,0.0,0.0,16,0.00,NA,NA,-99.99,wxupload 3.4,2013-03-30 18:52:00,
2013-03-30 14:58:00,61.3,14.9,32.13,SSE,148,0.0,4.0,16,0.00,NA,NA,-99.99,wxupload 3.4,2013-03-30 18:58:00,
2013-03-30 15:04:00,62.6,15.9,32.13,WNW,291,3.0,3.0,16,0.00,NA,NA,-99.99,wxupload 3.4,2013-03-30 19:04:00,
2013-03-30 15:10:00,62.4,15.8,32.13,NW,316,0.0,3.0,16,0.00,NA,NA,-99.99,wxupload 3.4,2013-03-30 19:10:00,
2013-03-30 15:16:00,62.8,16.1,32.13,NW,314,0.0,4.0,16,0.00,NA,NA,-99.99,wxupload 3.4,2013-03-30 19:16:00,
2013-03-30 15:22:00,61.5,15.0,32.13,North,3,0.0,3.0,16,0.00,NA,NA,-99.99,wxupload 3.4,2013-03-30 19:22:00,
2013-03-30 15:28:00,61.9,15.3,32.13,NNE,33,0.0,4.0,16,0.00,NA,NA,-99.99,wxupload 3.4,2013-03-30 19:28:00,
2013-03-30 15:34:00,61.7,15.2,32.13,WSW,242,0.0,0.0,16,0.00,NA,NA,-99.99,wxupload 3.4,2013-03-30 19:34:00,
2013-03-30 15:40:00,63.1,16.4,32.13,WNW,303,0.0,0.0,16,0.00,NA,NA,-99.99,wxupload 3.4,2013-03-30 19:40:00,
2013-03-30 15:46:00,63.5,16.7,32.13,NW,324,0.0,0.0,16,0.00,NA,NA,-99.99,wxupload 3.4,2013-03-30 19:46:00,
2013-03-30 15:52:00,63.3,16.5,32.13,WNW,297,0.0,5.0,16,0.00,NA,NA,-99.99,wxupload 3.4,2013-03-30 19:52:00,
2013-03-30 15:58:00,63.7,16.8,32.13,NNW,332,0.0,3.0,16,0.00,NA,NA,-99.99,wxupload 3.4,2013-03-30 19:58:00,
2013-03-30 16:04:00,63.5,16.7,32.10,NW,324,0.0,0.0,16,0.00,NA,NA,-99.99,wxupload 3.4,2013-03-30 20:04:00,
2013-03-30 16:10:00,63.7,16.8,32.10,SSW,213,0.0,0.0,16,0.00,NA,NA,-99.99,wxupload 3.4,2013-03-30 20:10:00,
2013-03-30 16:18:00,64.8,16.2,32.10,West,280,0.0,0.0,15,0.00,NA,NA,-99.99,wxupload 3.4,2013-03-30 20:18:00,
2013-03-30 16:24:00,65.3,16.6,32.10,NW,324,0.0,2.0,15,0.00,NA,NA,-99.99,wxupload 3.4,2013-03-30 20:24:00,
2013-03-30 16:30:00,64.2,17.3,32.10,WNW,282,0.0,4.0,16,0.00,NA,NA,-99.99,wxupload 3.4,2013-03-30 20:30:00,
2013-03-30 16:36:00,64.2,17.3,32.10,ENE,57,0.0,0.0,16,0.00,NA,NA,-99.99,wxupload 3.4,2013-03-30 20:36:00,
2013-03-30 16:42:00,64.4,15.9,32.10,East,91,0.0,0.0,15,0.00,NA,NA,-99.99,wxupload 3.4,2013-03-30 20:42:00,
2013-03-30 16:48:00,64.6,16.1,32.10,NE,36,0.0,3.0,15,0.00,NA,NA,-99.99,wxupload 3.4,2013-03-30 20:48:00,
2013-03-30 16:54:00,63.3,16.5,32.10,NNE,20,0.0,0.0,16,0.00,NA,NA,-99.99,wxupload 3.4,2013-03-30 20:54:00,
2013-03-30 17:00:00,63.1,16.4,32.10,NNW,328,0.0,0.0,16,0.00,NA,NA,-99.99,wxupload 3.4,2013-03-30 21:00:00,
2013-03-30 17:06:00,63.0,16.2,32.10,NNE,18,0.0,2.0,16,0.00,NA,NA,-99.99,wxupload 3.4,2013-03-30 21:06:00,
2013-03-30 17:12:00,62.8,16.1,32.10,NW,320,0.0,0.0,16,0.00,NA,NA,-99.99,wxupload 3.4,2013-03-30 21:12:00,
2013-03-30 17:18:00,62.4,15.8,32.10,NE,52,0.0,0.0,16,0.00,NA,NA,-99.99,wxupload 3.4,2013-03-30 21:18:00,
2013-03-30 17:24:00,62.2,15.6,32.10,NNW,343,0.0,0.0,16,0.00,NA,NA,-99.99,wxupload 3.4,2013-03-30 21:24:00,
2013-03-30 17:30:00,61.9,15.3,32.10,NE,38,0.0,0.0,16,0.00,NA,NA,-99.99,wxupload 3.4,2013-03-30 21:30:00,
2013-03-30 17:36:00,61.2,14.7,32.10,NNE,14,0.0,0.0,16,0.00,NA,NA,-99.99,wxupload 3.4,2013-03-30 21:36:00,
2013-03-30 17:42:00,60.4,15.5,32.10,WNW,303,0.0,0.0,17,0.00,NA,NA,-99.99,wxupload 3.4,2013-03-30 21:42:00,
2013-03-30 17:48:00,60.1,15.2,32.10,WSW,258,0.0,0.0,17,0.00,NA,NA,-99.99,wxupload 3.4,2013-03-30 21:48:00,
2013-03-30 17:54:00,59.4,14.6,32.10,NW,326,0.0,0.0,17,0.00,NA,NA,-99.99,wxupload 3.4,2013-03-30 21:54:00,
2013-03-30 18:00:00,58.8,14.2,32.10,NE,49,0.0,0.0,17,0.00,NA,NA,-99.99,wxupload 3.4,2013-03-30 22:00:00,
2013-03-30 18:06:00,58.5,13.9,32.10,NNE,25,0.0,0.0,17,0.00,NA,NA,-99.99,wxupload 3.4,2013-03-30 22:06:00,
2013-03-30 18:12:00,57.9,13.4,32.10,WNW,299,0.0,0.0,17,0.00,NA,NA,-99.99,wxupload 3.4,2013-03-30 22:12:00,
2013-03-30 18:18:00,57.4,13.0,32.10,WNW,294,0.0,0.0,17,0.00,NA,NA,-99.99,wxupload 3.4,2013-03-30 22:18:00,
2013-03-30 18:24:00,57.2,12.8,32.10,WNW,294,0.0,0.0,17,0.00,NA,NA,-99.99,wxupload 3.4,2013-03-30 22:24:00,
2013-03-30 18:30:00,56.7,12.4,32.10,WNW,294,0.0,0.0,17,0.00,NA,NA,-99.99,wxupload 3.4,2013-03-30 22:30:00,
2013-03-30 18:36:00,56.1,11.9,32.10,WNW,294,0.0,0.0,17,0.00,NA,NA,-99.99,wxupload 3.4,2013-03-30 22:36:00,
2013-03-30 18:42:00,55.4,11.3,32.10,NE,49,0.0,0.0,17,0.00,NA,NA,-99.99,wxupload 3.4,2013-03-30 22:42:00,
2013-03-30 18:48:00,54.9,12.2,32.10,NE,49,0.0,0.0,18,0.00,NA,NA,-99.99,wxupload 3.4,2013-03-30 22:48:00,
2013-03-30 18:54:00,54.1,11.6,32.10,NE,49,0.0,0.0,18,0.00,NA,NA,-99.99,wxupload 3.4,2013-03-30 22:54:00,
2013-03-30 19:00:00,53.8,11.3,32.10,NE,49,0.0,0.0,18,0.00,NA,NA,-99.99,wxupload 3.4,2013-03-30 23:00:00,
2013-03-30 19:06:00,53.1,10.6,32.10,NE,49,0.0,0.0,18,0.00,NA,NA,-99.99,wxupload 3.4,2013-03-30 23:06:00,
2013-03-30 19:12:00,52.3,10.0,32.10,NE,49,0.0,0.0,18,0.00,NA,NA,-99.99,wxupload 3.4,2013-03-30 23:12:00,
2013-03-30 19:18:00,51.6,10.7,32.10,NE,49,0.0,0.0,19,0.00,NA,NA,-99.99,wxupload 3.4,2013-03-30 23:18:00,
2013-03-30 19:24:00,51.1,10.2,32.10,NE,49,0.0,0.0,19,0.00,NA,NA,-99.99,wxupload 3.4,2013-03-30 23:24:00,
2013-03-30 19:30:00,50.4,9.6,32.10,NE,49,0.0,0.0,19,0.00,NA,NA,-99.99,wxupload 3.4,2013-03-30 23:30:00,
2013-03-30 19:36:00,49.6,9.0,32.10,NE,49,0.0,0.0,19,0.00,NA,NA,-99.99,wxupload 3.4,2013-03-30 23:36:00,
2013-03-30 19:42:00,48.7,8.2,32.10,NE,49,0.0,0.0,19,0.00,NA,NA,-99.99,wxupload 3.4,2013-03-30 23:42:00,
2013-03-30 19:48:00,48.2,7.8,32.10,NE,49,0.0,0.0,19,0.00,NA,NA,-99.99,wxupload 3.4,2013-03-30 23:48:00,
2013-03-30 19:54:00,47.3,7.0,32.10,NE,49,0.0,0.0,19,0.00,NA,NA,-99.99,wxupload 3.4,2013-03-30 23:54:00,
2013-03-30 20:00:00,46.4,6.2,32.10,NE,49,0.0,0.0,19,0.00,NA,NA,-99.99,wxupload 3.4,2013-03-31 00:00:00,
2013-03-30 20:06:00,45.3,6.5,32.10,NE,49,0.0,0.0,20,0.00,NA,NA,-99.99,wxupload 3.4,2013-03-31 00:06:00,
2013-03-30 20:12:00,44.8,8.1,32.10,NE,49,0.0,0.0,22,0.00,NA,NA,-99.99,wxupload 3.4,2013-03-31 00:12:00,
2013-03-30 20:18:00,44.6,8.0,32.13,NE,49,0.0,0.0,22,0.00,NA,NA,-99.99,wxupload 3.4,2013-03-31 00:18:00,
2013-03-30 20:24:00,44.1,8.5,32.13,NE,49,0.0,0.0,23,0.00,NA,NA,-99.99,wxupload 3.4,2013-03-31 00:24:00,
2013-03-30 20:30:00,43.3,7.9,32.13,NE,49,0.0,0.0,23,0.00,NA,NA,-99.99,wxupload 3.4,2013-03-31 00:30:00,
2013-03-30 20:36:00,42.8,7.4,32.13,NE,49,0.0,0.0,23,0.00,NA,NA,-99.99,wxupload 3.4,2013-03-31 00:36:00,
2013-03-30 20:42:00,42.3,7.0,32.13,NE,49,0.0,0.0,23,0.00,NA,NA,-99.99,wxupload 3.4,2013-03-31 00:42:00,
2013-03-30 20:48:00,41.7,6.5,32.13,SE,137,0.0,0.0,23,0.00,NA,NA,-99.99,wxupload 3.4,2013-03-31 00:48:00,
2013-03-30 20:54:00,41.5,6.3,32.13,SE,137,0.0,0.0,23,0.00,NA,NA,-99.99,wxupload 3.4,2013-03-31 00:54:00,
2013-03-30 21:00:00,40.8,5.7,32.13,SE,137,0.0,0.0,23,0.00,NA,NA,-99.99,wxupload 3.4,2013-03-31 01:00:00,
2013-03-30 21:06:00,40.3,5.2,32.13,SE,137,0.0,0.0,23,0.00,NA,NA,-99.99,wxupload 3.4,2013-03-31 01:06:00,
2013-03-30 21:12:00,39.6,7.3,32.13,SE,137,0.0,0.0,26,0.00,NA,NA,-99.99,wxupload 3.4,2013-03-31 01:12:00,
2013-03-30 21:18:00,39.2,7.0,32.13,SE,137,0.0,0.0,26,0.00,NA,NA,-99.99,wxupload 3.4,2013-03-31 01:18:00,
2013-03-30 21:24:00,38.8,6.7,32.13,SE,137,0.0,0.0,26,0.00,NA,NA,-99.99,wxupload 3.4,2013-03-31 01:24:00,
2013-03-30 21:30:00,38.5,6.4,32.13,SE,137,0.0,0.0,26,0.00,NA,NA,-99.99,wxupload 3.4,2013-03-31 01:30:00,
2013-03-30 21:36:00,38.1,8.5,32.13,SE,137,0.0,0.0,29,0.00,NA,NA,-99.99,wxupload 3.4,2013-03-31 01:36:00,
2013-03-30 21:42:00,37.6,8.1,32.13,SE,137,0.0,0.0,29,0.00,NA,NA,-99.99,wxupload 3.4,2013-03-31 01:42:00,
2013-03-30 21:48:00,37.2,7.7,32.13,SE,137,0.0,0.0,29,0.00,NA,NA,-99.99,wxupload 3.4,2013-03-31 01:48:00,
2013-03-30 21:54:00,36.9,7.4,32.13,SE,137,0.0,0.0,29,0.00,NA,NA,-99.99,wxupload 3.4,2013-03-31 01:54:00,
2013-03-30 22:00:00,36.7,8.0,32.13,SE,137,0.0,0.0,30,0.00,NA,NA,-99.99,wxupload 3.4,2013-03-31 02:00:00,
2013-03-30 22:06:00,36.3,7.7,32.13,SE,137,0.0,0.0,30,0.00,NA,NA,-99.99,wxupload 3.4,2013-03-31 02:06:00,
2013-03-30 22:12:00,36.1,7.5,32.13,SE,137,0.0,0.0,30,0.00,NA,NA,-99.99,wxupload 3.4,2013-03-31 02:12:00,
2013-03-30 22:18:00,35.8,7.2,32.13,SE,137,0.0,0.0,30,0.00,NA,NA,-99.99,wxupload 3.4,2013-03-31 02:18:00,
2013-03-30 22:24:00,35.4,7.6,32.13,SE,137,0.0,0.0,31,0.00,NA,NA,-99.99,wxupload 3.4,2013-03-31 02:24:00,
2013-03-30 22:30:00,35.2,7.5,32.13,SE,137,0.0,0.0,31,0.00,NA,NA,-99.99,wxupload 3.4,2013-03-31 02:30:00,
2013-03-30 22:36:00,35.1,7.3,32.13,SE,137,0.0,0.0,31,0.00,NA,NA,-99.99,wxupload 3.4,2013-03-31 02:36:00,
2013-03-30 22:42:00,34.7,7.0,32.13,SE,137,0.0,0.0,31,0.00,NA,NA,-99.99,wxupload 3.4,2013-03-31 02:42:00,
2013-03-30 22:48:00,34.5,6.8,32.13,SE,137,0.0,0.0,31,0.00,NA,NA,-99.99,wxupload 3.4,2013-03-31 02:48:00,
2013-03-30 22:54:00,34.3,6.7,32.13,SE,137,0.0,0.0,31,0.00,NA,NA,-99.99,wxupload 3.4,2013-03-31 02:54:00,
2013-03-30 23:00:00,34.2,7.2,32.13,SE,137,0.0,0.0,32,0.00,NA,NA,-99.99,wxupload 3.4,2013-03-31 03:00:00,
2013-03-30 23:06:00,33.8,6.9,32.13,SE,137,0.0,0.0,32,0.00,NA,NA,-99.99,wxupload 3.4,2013-03-31 03:06:00,
2013-03-30 23:12:00,33.8,6.9,32.13,SE,137,0.0,0.0,32,0.00,NA,NA,-99.99,wxupload 3.4,2013-03-31 03:12:00,
2013-03-30 23:18:00,33.6,7.4,32.10,SE,137,0.0,0.0,33,0.00,NA,NA,-99.99,wxupload 3.4,2013-03-31 03:18:00,
2013-03-30 23:24:00,33.4,7.3,32.10,SE,137,0.0,0.0,33,0.00,NA,NA,-99.99,wxupload 3.4,2013-03-31 03:24:00,
2013-03-30 23:30:00,33.4,7.3,32.10,SE,137,0.0,0.0,33,0.00,NA,NA,-99.99,wxupload 3.4,2013-03-31 03:30:00,
2013-03-30 23:36:00,33.3,7.8,32.10,SE,137,0.0,0.0,34,0.00,NA,NA,-99.99,wxupload 3.4,2013-03-31 03:36:00,
2013-03-30 23:42:00,33.3,7.8,32.10,SE,137,0.0,0.0,34,0.00,NA,NA,-99.99,wxupload 3.4,2013-03-31 03:42:00,
2013-03-30 23:48:00,33.1,7.6,32.10,SE,137,0.0,0.0,34,0.00,NA,NA,-99.99,wxupload 3.4,2013-03-31 03:48:00,
2013-03-30 23:54:00,33.1,8.3,32.10,SE,137,0.0,0.0,35,0.00,NA,NA,-99.99,wxupload 3.4,2013-03-31 03:54:00,